Time;durP1;ratioP1;P1;durP2;ratioP2;P2;SDS_P1;SDS_P2;PMS_P1;PMS_P2;Temp;Humidity;BMP_temperature;BMP_pressure;BME280_temperature;BME280_humidity;BME280_pressure;Samples;Min_cycle;Max_cycle;Signal;HPM_P1;HPM_P2
2023/10/05 00:02:10;;;;;;;3.93;1.97;;;8.00;59.80;;;;;;5013730;28;20414;-69
2023/10/05 00:04:41;;;;;;;3.87;1.87;;;7.90;59.60;;;;;;5013295;28;20198;-67
2023/10/05 00:07:16;;;;;;;4.10;2.00;;;7.90;60.30;;;;;;5013938;28;20416;-70
2023/10/05 00:09:43;;;;;;;4.37;2.30;;;8.00;60.10;;;;;;5013478;28;20429;-69
2023/10/05 00:12:13;;;;;;;4.60;1.77;;;8.00;60.00;;;;;;5013336;28;20451;-69
2023/10/05 00:14:40;;;;;;;4.37;1.83;;;8.00;59.40;;;;;;5028294;28;20469;-69
2023/10/05 00:17:09;;;;;;;3.90;2.03;;;8.00;60.30;;;;;;5012035;28;20433;-68
2023/10/05 00:19:39;;;;;;;3.23;1.67;;;7.90;60.30;;;;;;5013218;28;20403;-69
2023/10/05 00:22:05;;;;;;;3.50;2.33;;;8.00;60.30;;;;;;5013383;28;20412;-69
2023/10/05 00:26:58;;;;;;;6.73;1.60;;;8.10;59.90;;;;;;5013131;28;20185;-69
2023/10/05 00:29:40;;;;;;;4.33;1.53;;;8.10;59.10;;;;;;5013130;28;20173;-69
2023/10/05 00:32:13;;;;;;;3.20;1.60;;;8.10;58.50;;;;;;5013084;28;20954;-68
2023/10/05 00:34:40;;;;;;;2.80;2.00;;;8.10;59.00;;;;;;5012771;28;20840;-69
2023/10/05 00:37:06;;;;;;;2.80;1.47;;;8.10;59.30;;;;;;5013025;28;20415;-69
2023/10/05 00:39:32;;;;;;;2.77;1.47;;;8.00;59.90;;;;;;5012935;28;20419;-69
2023/10/05 00:44:30;;;;;;;5.63;2.10;;;8.00;60.10;;;;;;5012618;28;20562;-69
2023/10/05 00:47:00;;;;;;;1.93;1.40;;;8.00;60.00;;;;;;5012718;28;20421;-69
2023/10/05 00:49:29;;;;;;;6.60;2.00;;;8.00;59.70;;;;;;5012731;28;20465;-69
2023/10/05 00:52:15;;;;;;;4.00;1.77;;;7.90;60.30;;;;;;5012751;28;20934;-69
2023/10/05 00:54:44;;;;;;;3.00;1.70;;;7.90;60.30;;;;;;5012527;28;20457;-69
2023/10/05 00:57:14;;;;;;;5.73;2.63;;;7.90;60.00;;;;;;5012238;28;20420;-68
2023/10/05 00:59:44;;;;;;;3.03;1.80;;;7.90;59.50;;;;;;5012674;28;20408;-69
2023/10/05 01:02:20;;;;;;;3.23;1.70;;;7.90;59.30;;;;;;5012564;28;20419;-69
2023/10/05 01:07:18;;;;;;;3.00;1.50;;;7.90;59.40;;;;;;5012715;28;20421;-70
2023/10/05 01:12:26;;;;;;;5.70;2.70;;;7.80;59.90;;;;;;5012479;28;20455;-69
2023/10/05 01:14:54;;;;;;;3.90;2.40;;;7.80;60.20;;;;;;5012119;28;20454;-69
2023/10/05 01:17:21;;;;;;;7.87;3.00;;;7.90;59.50;;;;;;5012355;28;20423;-69
2023/10/05 01:19:58;;;;;;;7.47;2.77;;;7.80;58.70;;;;;;5012407;28;20791;-69
2023/10/05 01:22:32;;;;;;;4.63;1.90;;;7.80;60.20;;;;;;5011073;28;20497;-69
2023/10/05 01:24:59;;;;;;;5.07;2.17;;;7.80;60.20;;;;;;5010766;28;20526;-69
2023/10/05 01:27:29;;;;;;;3.70;2.10;;;7.70;60.10;;;;;;5011021;28;20427;-69
2023/10/05 01:29:58;;;;;;;3.40;2.27;;;7.70;60.10;;;;;;5012513;28;20408;-68
2023/10/05 01:32:25;;;;;;;8.37;2.50;;;7.70;60.80;;;;;;5012220;28;20463;-68
2023/10/05 01:34:52;;;;;;;3.27;1.70;;;7.70;60.20;;;;;;5010786;28;20439;-68
2023/10/05 01:37:21;;;;;;;3.73;2.33;;;7.70;60.60;;;;;;5012169;28;20903;-68
2023/10/05 01:39:47;;;;;;;3.50;2.23;;;7.70;60.30;;;;;;5012085;28;20420;-69
2023/10/05 01:42:12;;;;;;;8.33;2.40;;;7.70;60.10;;;;;;5012116;28;20916;-69
2023/10/05 01:44:45;;;;;;;3.20;1.90;;;7.70;60.10;;;;;;5011992;28;20205;-68
2023/10/05 01:47:10;;;;;;;3.23;2.17;;;7.70;60.10;;;;;;5012373;28;20727;-68
2023/10/05 01:49:36;;;;;;;3.60;2.23;;;7.70;60.90;;;;;;5012358;28;20457;-68
2023/10/05 01:52:02;;;;;;;3.47;2.20;;;7.70;60.10;;;;;;5027527;28;20228;-68
2023/10/05 01:54:28;;;;;;;3.33;1.43;;;7.70;60.10;;;;;;5011953;28;20220;-68
2023/10/05 01:57:01;;;;;;;2.80;1.63;;;7.70;60.10;;;;;;5012479;28;20436;-68
2023/10/05 01:59:27;;;;;;;7.33;2.73;;;7.70;60.10;;;;;;5010644;28;20428;-69
2023/10/05 02:01:54;;;;;;;3.57;2.00;;;7.60;60.00;;;;;;5012108;28;20816;-69
2023/10/05 02:04:19;;;;;;;3.70;1.97;;;7.50;62.80;;;;;;5012009;28;21176;-69
2023/10/05 02:06:49;;;;;;;3.83;2.27;;;7.50;64.10;;;;;;5011943;28;20413;-69
2023/10/05 02:09:19;;;;;;;4.57;2.30;;;7.60;64.10;;;;;;5013723;28;20538;-69
2023/10/05 02:11:45;;;;;;;2.77;1.77;;;7.60;63.30;;;;;;5015866;28;20948;-69
2023/10/05 02:14:12;;;;;;;3.80;1.70;;;7.70;62.20;;;;;;5015717;28;20435;-69
2023/10/05 02:16:38;;;;;;;4.07;1.90;;;7.70;61.70;;;;;;5015383;28;20443;-69
2023/10/05 02:19:06;;;;;;;3.17;1.83;;;7.60;61.10;;;;;;5015530;28;20520;-68
2023/10/05 02:21:37;;;;;;;3.43;1.70;;;7.60;62.20;;;;;;5015479;28;20549;-70
2023/10/05 02:24:15;;;;;;;7.70;2.10;;;7.50;62.50;;;;;;5015425;28;20408;-69
2023/10/05 02:26:55;;;;;;;2.93;1.70;;;7.50;62.40;;;;;;5014053;28;20975;-69
2023/10/05 02:29:23;;;;;;;7.47;1.93;;;7.40;62.80;;;;;;5014161;28;20427;-69
2023/10/05 02:34:28;;;;;;;3.17;2.20;;;7.40;63.30;;;;;;5015294;28;20467;-69
2023/10/05 02:36:54;;;;;;;4.70;2.20;;;7.40;62.80;;;;;;5015282;28;20462;-69
2023/10/05 02:39:22;;;;;;;3.27;2.00;;;7.40;64.40;;;;;;5015258;28;20412;-68
2023/10/05 02:41:50;;;;;;;2.63;1.87;;;7.40;63.90;;;;;;5015171;28;20451;-70
2023/10/05 02:44:18;;;;;;;2.70;1.67;;;7.40;64.10;;;;;;5015012;28;20444;-70
2023/10/05 02:46:47;;;;;;;3.33;1.93;;;7.40;63.30;;;;;;5030190;28;20483;-69
2023/10/05 02:49:18;;;;;;;4.60;2.40;;;7.40;63.80;;;;;;5015172;28;20505;-69
2023/10/05 02:51:44;;;;;;;3.77;2.10;;;7.40;63.80;;;;;;5014937;28;20459;-69
2023/10/05 02:54:10;;;;;;;3.43;2.40;;;7.30;63.40;;;;;;5014823;28;20415;-69
2023/10/05 02:56:39;;;;;;;4.00;1.77;;;7.30;64.10;;;;;;5029832;28;20176;-69
2023/10/05 02:59:09;;;;;;;3.47;1.83;;;7.20;65.00;;;;;;5014809;28;20914;-70
2023/10/05 03:01:38;;;;;;;3.57;2.07;;;7.20;65.20;;;;;;5014653;28;20444;-69
2023/10/05 03:04:09;;;;;;;3.80;2.47;;;7.20;64.40;;;;;;5014616;28;20841;-69
2023/10/05 03:06:34;;;;;;;4.37;2.10;;;7.20;64.70;;;;;;5014516;28;20422;-68
2023/10/05 03:09:07;;;;;;;4.27;2.47;;;7.10;64.60;;;;;;5014703;28;20813;-69
2023/10/05 03:11:46;;;;;;;2.80;1.47;;;7.20;64.70;;;;;;5029619;28;20731;-69
2023/10/05 03:14:12;;;;;;;5.10;1.90;;;7.20;64.70;;;;;;5014455;28;20947;-69
2023/10/05 03:16:47;;;;;;;4.60;2.00;;;7.20;64.80;;;;;;5029592;28;20454;-69
2023/10/05 03:19:21;;;;;;;3.00;1.77;;;7.20;65.30;;;;;;5013896;28;20415;-68
2023/10/05 03:21:52;;;;;;;6.80;2.23;;;7.20;64.70;;;;;;5029714;28;20514;-69
2023/10/05 03:24:19;;;;;;;4.80;2.17;;;7.30;64.40;;;;;;5014267;28;20995;-69
2023/10/05 03:26:46;;;;;;;6.37;2.70;;;7.30;64.20;;;;;;5014382;28;20414;-69
2023/10/05 03:29:12;;;;;;;3.50;2.47;;;7.30;63.50;;;;;;5014226;28;20415;-69
2023/10/05 03:31:55;;;;;;;4.13;2.53;;;7.30;62.40;;;;;;5014344;28;20793;-69
2023/10/05 03:34:25;;;;;;;4.03;2.37;;;7.30;62.40;;;;;;5013839;28;20191;-69
2023/10/05 03:36:51;;;;;;;4.20;2.07;;;7.30;62.00;;;;;;5014296;28;20418;-69
2023/10/05 03:39:17;;;;;;;7.50;2.33;;;7.40;62.30;;;;;;5014195;28;20412;-69
2023/10/05 03:41:44;;;;;;;4.13;2.30;;;7.40;60.80;;;;;;5014384;28;20508;-68
2023/10/05 03:44:15;;;;;;;2.87;2.10;;;7.40;61.80;;;;;;5029337;28;20763;-68
2023/10/05 03:46:42;;;;;;;4.13;2.90;;;7.40;61.40;;;;;;5014031;28;20491;-69
2023/10/05 03:49:07;;;;;;;2.80;1.50;;;7.40;61.90;;;;;;5013854;28;20423;-67
2023/10/05 03:51:37;;;;;;;4.20;2.60;;;7.40;61.80;;;;;;5013787;28;20479;-69
2023/10/05 03:54:03;;;;;;;7.60;2.97;;;7.50;61.50;;;;;;5014013;28;20180;-69
2023/10/05 03:56:29;;;;;;;4.83;2.20;;;7.50;60.90;;;;;;5013643;28;20415;-70
2023/10/05 03:59:00;;;;;;;4.10;2.03;;;7.60;60.40;;;;;;5013841;28;20503;-69
2023/10/05 04:01:25;;;;;;;5.07;2.17;;;7.60;59.60;;;;;;5013740;28;20419;-70
2023/10/05 04:03:51;;;;;;;2.80;1.90;;;7.70;58.90;;;;;;5013603;28;20426;-70
2023/10/05 04:06:17;;;;;;;4.63;2.43;;;7.70;59.00;;;;;;5013462;28;20189;-69
2023/10/05 04:08:48;;;;;;;8.90;2.40;;;7.70;59.00;;;;;;5013653;28;20530;-69
2023/10/05 04:11:15;;;;;;;4.97;2.60;;;7.70;59.10;;;;;;5013426;28;20295;-70
2023/10/05 04:13:40;;;;;;;5.53;2.20;;;7.70;58.00;;;;;;5013935;28;20890;-69
2023/10/05 04:16:11;;;;;;;4.40;1.90;;;7.80;59.00;;;;;;5011771;28;20470;-69
2023/10/05 04:18:38;;;;;;;3.03;1.90;;;7.80;58.20;;;;;;5013690;28;21039;-70
2023/10/05 04:21:06;;;;;;;5.80;2.37;;;7.80;59.10;;;;;;5013909;28;20411;-69
2023/10/05 04:23:32;;;;;;;3.00;1.93;;;7.80;58.60;;;;;;5013362;28;20415;-70
2023/10/05 04:25:57;;;;;;;4.53;1.53;;;7.80;58.20;;;;;;5012998;28;20448;-70
2023/10/05 04:28:39;;;;;;;4.30;2.20;;;7.80;58.70;;;;;;5013194;28;20411;-70
2023/10/05 04:31:14;;;;;;;3.37;1.83;;;7.90;58.40;;;;;;5012249;28;20204;-70
2023/10/05 04:33:42;;;;;;;5.70;2.50;;;7.90;57.70;;;;;;5013271;28;20410;-69
2023/10/05 04:36:09;;;;;;;4.37;1.43;;;7.90;57.60;;;;;;5012828;28;20435;-70
2023/10/05 04:38:34;;;;;;;4.27;2.20;;;7.90;57.00;;;;;;5028280;28;20420;-69
2023/10/05 04:41:00;;;;;;;2.90;1.70;;;8.00;57.30;;;;;;5027968;28;20429;-70
2023/10/05 04:43:26;;;;;;;5.10;2.93;;;8.00;55.50;;;;;;5011799;28;20201;-69
2023/10/05 04:45:51;;;;;;;5.77;2.37;;;8.10;54.70;;;;;;5012925;28;20659;-69
2023/10/05 04:48:18;;;;;;;5.90;2.30;;;8.00;55.60;;;;;;5013062;28;20189;-68
2023/10/05 04:50:47;;;;;;;4.40;2.00;;;8.00;55.50;;;;;;5011696;28;20199;-70
2023/10/05 04:53:14;;;;;;;2.73;1.80;;;8.10;55.60;;;;;;5013069;28;20415;-69
2023/10/05 04:55:44;;;;;;;3.13;2.20;;;8.00;56.00;;;;;;5013130;28;20446;-69
2023/10/05 04:58:24;;;;;;;2.90;1.80;;;8.00;56.40;;;;;;5013851;28;20538;-69
2023/10/05 05:01:14;;;;;;;9.80;2.17;;;8.00;54.10;;;;;;5012971;28;20415;-69
2023/10/05 05:06:20;;;;;;;8.13;2.60;;;7.90;54.60;;;;;;5012836;28;20546;-68
2023/10/05 05:08:46;;;;;;;3.63;2.23;;;7.90;55.00;;;;;;5012707;28;20413;-68
2023/10/05 05:11:20;;;;;;;3.70;2.20;;;8.00;54.50;;;;;;5012403;28;20454;-68
2023/10/05 05:13:47;;;;;;;4.10;1.70;;;8.00;54.70;;;;;;5012392;28;20188;-68
2023/10/05 05:16:16;;;;;;;3.40;2.30;;;8.00;54.50;;;;;;5012035;28;20530;-68
2023/10/05 05:18:42;;;;;;;5.03;2.60;;;8.00;54.20;;;;;;5011994;28;20466;-68
2023/10/05 05:21:08;;;;;;;5.00;2.27;;;8.10;52.90;;;;;;5012246;28;20439;-67
2023/10/05 05:23:35;;;;;;;3.80;2.67;;;8.10;52.70;;;;;;5012395;28;20498;-68
2023/10/05 05:26:00;;;;;;;3.10;2.20;;;8.20;52.70;;;;;;5012036;28;20207;-67
2023/10/05 05:28:26;;;;;;;5.50;2.70;;;8.20;51.60;;;;;;5012297;28;20408;-68
2023/10/05 05:30:53;;;;;;;7.73;2.80;;;8.30;51.80;;;;;;5012042;28;20480;-68
2023/10/05 05:33:18;;;;;;;3.07;2.20;;;8.30;51.70;;;;;;5012094;28;20164;-68
2023/10/05 05:35:44;;;;;;;3.67;2.37;;;8.40;50.80;;;;;;5011880;28;20439;-67
2023/10/05 05:38:10;;;;;;;7.13;2.17;;;8.40;51.00;;;;;;5012088;28;20584;-68
2023/10/05 05:40:37;;;;;;;4.57;2.10;;;8.40;51.00;;;;;;5012313;28;20419;-69
2023/10/05 05:43:08;;;;;;;8.10;2.33;;;8.50;49.80;;;;;;5011808;28;20173;-68
2023/10/05 05:45:43;;;;;;;4.57;2.20;;;8.50;49.40;;;;;;5011796;28;20438;-68
2023/10/05 05:48:15;;;;;;;4.90;2.50;;;8.60;48.20;;;;;;5012187;28;20787;-68
2023/10/05 05:50:45;;;;;;;3.93;2.07;;;8.60;49.10;;;;;;5011863;28;20410;-68
2023/10/05 05:53:16;;;;;;;4.10;2.07;;;8.70;48.40;;;;;;5012060;28;20405;-68
2023/10/05 05:55:52;;;;;;;7.97;2.60;;;8.70;47.40;;;;;;5011572;28;20475;-68
2023/10/05 05:58:18;;;;;;;3.77;2.17;;;8.80;47.00;;;;;;5011911;28;20491;-68
2023/10/05 06:00:46;;;;;;;3.80;2.63;;;8.90;48.20;;;;;;5011906;28;20493;-68
2023/10/05 06:03:12;;;;;;;2.93;1.60;;;9.00;48.00;;;;;;5011751;28;20408;-68
2023/10/05 06:05:38;;;;;;;4.47;2.87;;;9.10;45.10;;;;;;5011505;28;21002;-68
2023/10/05 06:08:04;;;;;;;3.63;2.77;;;9.10;43.80;;;;;;5011884;28;20670;-68
2023/10/05 06:10:34;;;;;;;4.50;2.00;;;9.30;43.00;;;;;;5011895;28;20420;-68
2023/10/05 06:12:59;;;;;;;4.17;2.40;;;9.30;42.70;;;;;;5011891;28;20646;-68
2023/10/05 06:15:25;;;;;;;5.03;2.00;;;9.30;42.60;;;;;;5010029;28;20471;-68
2023/10/05 06:17:51;;;;;;;3.40;2.00;;;9.40;40.40;;;;;;5011651;28;20190;-68
2023/10/05 06:20:17;;;;;;;3.80;2.40;;;9.50;41.80;;;;;;5010328;28;20219;-68
2023/10/05 06:22:49;;;;;;;5.67;3.00;;;9.60;40.20;;;;;;5010122;28;20190;-68
2023/10/05 06:25:15;;;;;;;6.13;4.53;;;9.70;40.80;;;;;;5011140;28;20434;-69
2023/10/05 06:27:43;;;;;;;9.10;4.60;;;9.80;38.60;;;;;;5010250;28;20418;-68
2023/10/05 06:30:10;;;;;;;6.07;3.70;;;9.80;39.00;;;;;;5011550;28;20425;-68
2023/10/05 06:32:36;;;;;;;10.20;3.07;;;10.10;38.70;;;;;;5011429;28;20541;-68
2023/10/05 06:35:03;;;;;;;7.10;3.73;;;10.30;35.50;;;;;;5011347;28;20533;-68
2023/10/05 06:37:29;;;;;;;4.60;2.90;;;10.30;33.30;;;;;;5011515;28;20414;-68
2023/10/05 06:39:55;;;;;;;5.73;2.73;;;10.60;32.70;;;;;;5010038;28;20425;-68
2023/10/05 06:42:21;;;;;;;4.80;3.23;;;10.70;31.60;;;;;;5011582;28;20866;-68
2023/10/05 06:44:48;;;;;;;5.37;3.47;;;10.80;31.70;;;;;;5010025;28;20203;-68
2023/10/05 06:47:35;;;;;;;5.23;3.77;;;10.80;31.10;;;;;;5011511;28;20233;-68
2023/10/05 06:50:00;;;;;;;13.63;4.57;;;10.80;30.40;;;;;;5011337;28;20431;-68
2023/10/05 06:52:25;;;;;;;10.63;4.90;;;10.70;29.50;;;;;;5011250;28;20459;-68
2023/10/05 06:54:51;;;;;;;6.80;3.90;;;10.90;30.80;;;;;;5013335;28;20470;-68
2023/10/05 06:57:17;;;;;;;6.20;3.20;;;11.10;29.30;;;;;;5015129;28;20218;-68
2023/10/05 06:59:42;;;;;;;5.87;2.57;;;11.30;27.50;;;;;;5014926;28;20187;-68
2023/10/05 07:02:08;;;;;;;5.73;4.10;;;11.50;27.80;;;;;;5014986;28;20554;-68
2023/10/05 07:04:35;;;;;;;4.33;3.10;;;11.60;26.40;;;;;;5014524;28;20207;-68
2023/10/05 07:07:03;;;;;;;5.97;2.50;;;11.80;26.20;;;;;;5014827;28;20778;-68
2023/10/05 07:09:30;;;;;;;4.93;3.53;;;11.90;23.90;;;;;;5014730;28;20426;-68
2023/10/05 07:11:55;;;;;;;6.03;2.47;;;12.20;23.00;;;;;;5014623;28;20467;-68
2023/10/05 07:14:21;;;;;;;2.73;2.07;;;12.40;21.20;;;;;;5014466;28;20998;-68
2023/10/05 07:16:46;;;;;;;3.70;2.80;;;12.10;22.00;;;;;;5013442;28;20665;-68
2023/10/05 07:19:12;;;;;;;6.07;3.40;;;12.40;21.70;;;;;;5014916;28;20592;-67
2023/10/05 07:21:38;;;;;;;14.63;4.37;;;12.10;20.40;;;;;;5014701;28;20192;-68
2023/10/05 07:24:04;;;;;;;4.33;3.50;;;12.00;22.90;;;;;;5014519;28;20636;-68
2023/10/05 07:26:30;;;;;;;7.13;3.70;;;11.90;22.30;;;;;;5014331;28;20414;-68
2023/10/05 07:28:55;;;;;;;18.60;3.20;;;11.70;22.90;;;;;;5014475;28;20441;-68
2023/10/05 07:31:22;;;;;;;4.20;3.60;;;11.80;23.80;;;;;;5014344;28;20246;-68
2023/10/05 07:33:48;;;;;;;4.60;3.30;;;11.80;23.60;;;;;;5014233;28;20547;-68
2023/10/05 07:36:14;;;;;;;4.63;3.40;;;11.90;23.00;;;;;;5013893;28;20914;-68
2023/10/05 07:38:40;;;;;;;4.10;2.40;;;11.90;23.10;;;;;;5014123;28;20410;-68
2023/10/05 07:41:07;;;;;;;7.07;4.00;;;11.90;22.00;;;;;;5014100;28;20410;-68
2023/10/05 07:43:34;;;;;;;10.03;4.07;;;12.10;21.70;;;;;;5014311;28;20183;-67
2023/10/05 07:46:04;;;;;;;5.80;2.50;;;12.10;21.50;;;;;;5014117;28;20477;-68
2023/10/05 07:48:31;;;;;;;8.17;3.60;;;12.50;21.40;;;;;;5014239;28;20422;-68
2023/10/05 07:50:57;;;;;;;6.63;3.27;;;12.80;19.90;;;;;;5012958;28;20489;-69
2023/10/05 07:53:22;;;;;;;4.03;3.00;;;12.90;19.50;;;;;;5014060;28;20419;-68
2023/10/05 07:55:49;;;;;;;7.50;4.17;;;13.40;17.20;;;;;;5012963;28;20731;-68
2023/10/05 07:58:15;;;;;;;4.90;3.23;;;13.80;16.60;;;;;;5012910;28;20666;-69
2023/10/05 08:00:42;;;;;;;7.07;3.73;;;14.20;14.70;;;;;;5013995;28;20418;-68
2023/10/05 08:03:07;;;;;;;6.33;3.10;;;14.70;13.00;;;;;;5014044;28;20182;-69
2023/10/05 08:05:33;;;;;;;4.50;3.13;;;14.60;11.20;;;;;;5013451;28;20798;-68
2023/10/05 08:07:59;;;;;;;5.70;3.20;;;14.60;11.70;;;;;;5013826;28;20187;-68
2023/10/05 08:10:25;;;;;;;4.43;3.10;;;14.70;10.90;;;;;;5013659;28;20429;-69
2023/10/05 08:12:50;;;;;;;3.97;2.67;;;14.80;10.60;;;;;;5012358;28;20208;-69
2023/10/05 08:15:19;;;;;;;4.10;2.97;;;15.00;10.40;;;;;;5045776;22;20235;-68
2023/10/05 08:17:47;;;;;;;5.03;2.83;;;15.10;10.20;;;;;;5034295;28;20231;-68
2023/10/05 08:20:15;;;;;;;6.40;3.00;;;15.20;9.50;;;;;;5032067;28;20417;-69
2023/10/05 08:22:41;;;;;;;7.80;3.33;;;15.20;9.50;;;;;;5010348;28;20985;-69
2023/10/05 08:25:11;;;;;;;4.10;2.90;;;15.30;9.60;;;;;;5010003;28;20702;-69
2023/10/05 08:27:38;;;;;;;5.80;2.67;;;15.60;9.10;;;;;;5009919;28;20263;-69
2023/10/05 08:30:06;;;;;;;6.20;3.07;;;15.80;7.80;;;;;;5008429;28;20441;-69
2023/10/05 08:32:33;;;;;;;6.83;3.40;;;15.60;8.60;;;;;;5010467;28;20540;-69
2023/10/05 08:35:06;;;;;;;4.27;3.53;;;15.60;9.10;;;;;;5009981;28;20533;-69
2023/10/05 08:37:42;;;;;;;4.10;2.40;;;15.60;8.10;;;;;;5009574;28;20802;-69
2023/10/05 08:40:27;;;;;;;4.67;3.00;;;15.90;8.80;;;;;;5009694;28;21056;-68
2023/10/05 08:42:55;;;;;;;9.00;4.13;;;15.80;9.20;;;;;;5012511;28;20423;-68
2023/10/05 08:45:23;;;;;;;6.43;2.80;;;15.90;8.70;;;;;;5013944;28;20857;-69
2023/10/05 08:47:53;;;;;;;8.03;4.17;;;15.40;8.90;;;;;;5013346;28;20463;-69
2023/10/05 08:50:22;;;;;;;5.10;3.20;;;15.40;9.50;;;;;;5013366;28;20415;-69
2023/10/05 08:52:47;;;;;;;5.77;3.70;;;15.40;9.20;;;;;;5013301;28;20818;-69
2023/10/05 08:55:14;;;;;;;11.40;3.23;;;15.50;9.40;;;;;;5013337;28;20529;-68
2023/10/05 08:57:40;;;;;;;5.57;3.77;;;15.50;10.40;;;;;;5013282;28;20298;-69
2023/10/05 09:00:08;;;;;;;5.20;3.27;;;15.80;9.20;;;;;;5012085;28;20946;-69
2023/10/05 09:02:36;;;;;;;7.73;3.43;;;15.80;10.10;;;;;;5012465;28;20226;-69
2023/10/05 09:05:07;;;;;;;4.93;2.90;;;15.80;8.60;;;;;;5012453;28;20439;-68
2023/10/05 09:07:37;;;;;;;3.80;2.57;;;15.40;8.60;;;;;;5012595;28;20813;-70
2023/10/05 09:10:24;;;;;;;14.30;2.93;;;15.80;9.80;;;;;;5012368;28;20445;-69
2023/10/05 09:12:58;;;;;;;5.63;3.40;;;15.60;9.10;;;;;;5012305;28;20457;-68
2023/10/05 09:20:33;;;;;;;5.47;3.10;;;15.00;11.20;;;;;;5012545;28;20418;-68
2023/10/05 09:23:01;;;;;;;6.50;2.93;;;15.40;10.00;;;;;;5012140;28;20937;-68
2023/10/05 09:25:34;;;;;;;3.90;2.60;;;15.50;9.00;;;;;;5011861;28;20451;-68
2023/10/05 09:28:13;;;;;;;5.20;3.00;;;16.10;9.40;;;;;;5012103;28;20414;-69
2023/10/05 09:30:59;;;;;;;5.53;3.13;;;16.70;8.30;;;;;;5012331;28;20457;-69
2023/10/05 09:33:27;;;;;;;3.67;3.00;;;17.10;6.10;;;;;;5012322;28;20898;-69
2023/10/05 09:36:01;;;;;;;7.83;3.27;;;17.10;5.60;;;;;;5023702;28;20437;-68
2023/10/05 09:38:28;;;;;;;4.80;3.33;;;17.30;5.70;;;;;;5027308;28;20769;-68
2023/10/05 09:40:54;;;;;;;5.40;3.13;;;17.30;5.20;;;;;;5013415;28;20431;-69
2023/10/05 09:43:22;;;;;;;3.30;2.47;;;17.40;4.10;;;;;;5018947;28;20436;-69
2023/10/05 09:45:54;;;;;;;6.03;3.07;;;17.50;3.40;;;;;;5015371;28;20451;-69
2023/10/05 09:48:20;;;;;;;5.93;2.67;;;17.90;3.10;;;;;;5027876;28;20461;-69
2023/10/05 09:50:47;;;;;;;5.10;3.30;;;17.80;2.50;;;;;;5031119;28;20421;-69
2023/10/05 09:53:17;;;;;;;4.33;3.17;;;17.90;2.50;;;;;;5031604;28;20409;-69
2023/10/05 09:55:53;;;;;;;4.23;3.13;;;18.00;2.80;;;;;;5027375;28;20444;-67
2023/10/05 09:58:20;;;;;;;3.63;2.50;;;18.20;1.70;;;;;;5011332;28;20476;-67
2023/10/05 10:03:13;;;;;;;6.30;3.07;;;18.40;1.00;;;;;;5028634;28;20612;-67
2023/10/05 10:05:59;;;;;;;4.10;3.30;;;18.40;1.00;;;;;;5030878;28;20434;-67
2023/10/05 10:08:30;;;;;;;3.90;2.83;;;18.30;1.00;;;;;;5025239;28;20403;-67
2023/10/05 10:11:08;;;;;;;4.67;3.43;;;18.80;1.00;;;;;;5011332;28;20501;-67
2023/10/05 10:13:38;;;;;;;3.90;3.07;;;19.20;1.00;;;;;;5011693;28;20465;-67
2023/10/05 10:16:26;;;;;;;6.17;3.60;;;19.30;1.00;;;;;;5027476;28;20539;-67
2023/10/05 10:19:04;;;;;;;4.87;3.90;;;19.00;1.00;;;;;;5032006;28;20412;-67
2023/10/05 10:21:34;;;;;;;3.97;2.80;;;18.90;1.00;;;;;;5030711;28;20425;-67
2023/10/05 10:24:04;;;;;;;9.10;3.80;;;18.80;1.00;;;;;;5028226;28;20515;-67
2023/10/05 10:26:31;;;;;;;4.60;3.43;;;18.70;1.00;;;;;;5031364;28;20891;-67
2023/10/05 10:28:57;;;;;;;4.37;3.17;;;18.70;1.00;;;;;;5031444;28;20426;-67
2023/10/05 10:31:30;;;;;;;6.10;3.10;;;18.60;1.00;;;;;;5035671;28;20548;-67
2023/10/05 10:34:05;;;;;;;5.00;3.77;;;18.20;1.00;;;;;;5035376;28;20495;-67
2023/10/05 10:36:57;;;;;;;9.37;3.57;;;18.20;1.10;;;;;;5034910;28;20504;-68
2023/10/05 10:39:29;;;;;;;4.47;3.13;;;18.00;1.80;;;;;;5022567;28;20437;-68
2023/10/05 10:42:01;;;;;;;8.10;3.33;;;18.00;1.60;;;;;;5035107;28;20919;-68
2023/10/05 10:44:27;;;;;;;7.77;3.40;;;18.00;1.60;;;;;;5034843;28;20417;-68
2023/10/05 10:47:08;;;;;;;3.80;3.07;;;18.00;1.00;;;;;;5034957;28;20417;-68
2023/10/05 10:49:35;;;;;;;5.30;3.47;;;17.80;1.40;;;;;;5035189;28;20406;-68
2023/10/05 10:52:02;;;;;;;4.00;2.80;;;18.00;1.30;;;;;;5034219;28;20457;-68
2023/10/05 10:54:33;;;;;;;4.03;3.73;;;18.10;1.60;;;;;;5035094;28;20827;-71
2023/10/05 10:56:59;;;;;;;4.60;3.03;;;18.30;1.00;;;;;;5036059;28;20474;-70
2023/10/05 10:59:26;;;;;;;5.00;3.00;;;18.30;1.30;;;;;;5035394;28;20791;-70
2023/10/05 11:01:59;;;;;;;6.83;2.60;;;18.50;1.00;;;;;;5036258;28;20530;-71
2023/10/05 11:04:36;;;;;;;3.73;2.90;;;18.70;1.00;;;;;;5034726;28;20418;-69
2023/10/05 11:07:07;;;;;;;3.60;2.77;;;19.00;1.00;;;;;;5034535;28;20461;-69
2023/10/05 11:09:47;;;;;;;6.10;3.17;;;19.50;1.00;;;;;;5034541;28;20402;-69
2023/10/05 11:12:16;;;;;;;3.40;2.73;;;19.60;1.00;;;;;;5034791;28;20461;-69
2023/10/05 11:14:43;;;;;;;5.40;3.03;;;19.40;1.00;;;;;;5034321;28;20456;-69
2023/10/05 11:17:35;;;;;;;6.97;3.23;;;19.60;1.00;;;;;;5034618;28;20402;-69
2023/10/05 11:20:23;;;;;;;3.63;2.70;;;19.90;1.00;;;;;;5034120;28;20422;-69
2023/10/05 11:22:54;;;;;;;9.60;2.97;;;19.60;1.00;;;;;;5034378;28;20798;-69
2023/10/05 11:25:32;;;;;;;4.23;3.00;;;19.60;1.00;;;;;;5033645;28;21016;-69
2023/10/05 11:27:59;;;;;;;4.03;3.30;;;19.50;1.00;;;;;;5033970;28;20449;-69
2023/10/05 11:31:06;;;;;;;7.33;2.60;;;19.50;1.00;;;;;;5033536;28;20418;-69
2023/10/05 11:33:33;;;;;;;13.93;3.20;;;19.90;1.00;;;;;;5034157;28;20499;-69
2023/10/05 11:36:08;;;;;;;3.43;2.50;;;20.00;1.00;;;;;;5033700;28;20438;-69
2023/10/05 11:38:35;;;;;;;4.53;3.30;;;20.20;1.00;;;;;;5033656;28;20424;-69
2023/10/05 11:41:01;;;;;;;4.00;2.83;;;20.60;1.00;;;;;;5033298;28;20796;-69
2023/10/05 11:43:29;;;;;;;7.10;3.83;;;20.30;1.00;;;;;;5033643;28;20791;-69
2023/10/05 11:45:56;;;;;;;6.10;3.63;;;19.80;1.00;;;;;;5033086;28;20454;-69
2023/10/05 11:48:27;;;;;;;5.53;3.80;;;19.70;1.00;;;;;;5033595;28;20462;-69
2023/10/05 11:50:52;;;;;;;4.67;3.63;;;20.00;1.00;;;;;;5033463;28;20421;-69
2023/10/05 11:53:22;;;;;;;6.77;3.63;;;20.10;1.00;;;;;;5033926;28;20422;-69
2023/10/05 11:55:51;;;;;;;5.33;4.00;;;20.30;1.00;;;;;;5033472;28;20215;-69
2023/10/05 11:58:18;;;;;;;4.67;3.63;;;20.60;1.00;;;;;;5033561;28;20775;-69
2023/10/05 12:00:46;;;;;;;3.97;3.50;;;20.50;1.00;;;;;;5033616;28;20426;-69
2023/10/05 12:03:12;;;;;;;3.83;3.20;;;20.20;1.00;;;;;;5033425;28;20793;-69
2023/10/05 12:05:41;;;;;;;4.13;3.40;;;20.30;1.00;;;;;;5033733;28;20492;-70
2023/10/05 12:08:06;;;;;;;6.57;3.17;;;20.40;1.00;;;;;;5033215;28;20787;-70
2023/10/05 12:10:32;;;;;;;8.70;3.83;;;20.60;1.00;;;;;;5032817;28;20505;-70
2023/10/05 12:13:02;;;;;;;7.93;3.73;;;20.40;1.00;;;;;;5033084;28;20206;-70
2023/10/05 12:15:28;;;;;;;8.53;4.53;;;20.50;1.00;;;;;;5031271;28;20237;-70
2023/10/05 12:17:54;;;;;;;6.77;4.03;;;20.10;1.00;;;;;;5032933;28;20415;-70
2023/10/05 12:20:21;;;;;;;11.27;4.80;;;20.20;1.00;;;;;;5033367;28;20422;-69
2023/10/05 12:22:49;;;;;;;3.80;2.97;;;20.40;1.00;;;;;;5033514;28;20179;-68
2023/10/05 12:25:16;;;;;;;4.10;3.53;;;20.50;1.00;;;;;;5017377;28;20486;-68
2023/10/05 12:27:42;;;;;;;5.10;4.13;;;20.60;1.00;;;;;;5012970;28;20414;-68
2023/10/05 12:30:11;;;;;;;3.63;3.00;;;20.30;1.00;;;;;;5013020;28;20968;-68
2023/10/05 12:32:40;;;;;;;8.80;4.03;;;20.50;1.00;;;;;;5013096;28;20497;-68
2023/10/05 12:35:13;;;;;;;7.47;4.80;;;20.70;1.00;;;;;;5020130;28;21007;-68
2023/10/05 12:37:41;;;;;;;4.90;3.90;;;20.70;1.00;;;;;;5032728;28;20493;-68
2023/10/05 12:40:19;;;;;;;4.10;3.63;;;20.40;1.00;;;;;;5032374;28;20762;-67
2023/10/05 12:42:52;;;;;;;4.80;4.13;;;20.40;1.00;;;;;;5030655;28;20417;-68
2023/10/05 12:45:22;;;;;;;5.40;3.97;;;20.30;1.00;;;;;;5032202;28;20507;-67
2023/10/05 12:47:52;;;;;;;3.40;3.07;;;20.00;1.00;;;;;;5031901;28;20422;-68
2023/10/05 12:50:20;;;;;;;4.00;3.60;;;20.10;1.00;;;;;;5031633;28;20944;-68
2023/10/05 12:52:45;;;;;;;4.67;3.70;;;20.30;1.00;;;;;;5030826;28;20476;-67
2023/10/05 12:55:11;;;;;;;6.40;4.23;;;20.10;1.00;;;;;;5031481;28;20449;-69
2023/10/05 12:57:36;;;;;;;4.93;4.00;;;20.10;1.00;;;;;;5031500;28;20422;-68
2023/10/05 13:00:19;;;;;;;8.43;4.23;;;19.80;1.00;;;;;;5032242;28;20187;-68
2023/10/05 13:02:47;;;;;;;4.93;3.57;;;19.50;1.00;;;;;;5032270;28;20195;-68
2023/10/05 13:05:18;;;;;;;7.10;4.17;;;19.60;1.00;;;;;;5031978;28;20473;-67
2023/10/05 13:07:43;;;;;;;8.07;4.03;;;19.50;1.00;;;;;;5032613;28;20418;-68
2023/10/05 13:10:13;;;;;;;5.70;3.90;;;19.30;1.00;;;;;;5032058;28;20791;-67
2023/10/05 13:12:39;;;;;;;6.77;5.47;;;19.30;1.00;;;;;;5032046;28;20222;-68
2023/10/05 13:15:08;;;;;;;5.03;4.30;;;19.10;1.00;;;;;;5032067;28;20462;-66
2023/10/05 13:17:37;;;;;;;6.70;4.30;;;19.10;1.00;;;;;;5031964;28;20237;-68
2023/10/05 13:20:04;;;;;;;6.40;4.83;;;18.90;1.00;;;;;;5031884;28;20890;-68
2023/10/05 13:22:29;;;;;;;6.47;4.07;;;18.90;1.00;;;;;;5032024;28;20422;-68
2023/10/05 13:24:57;;;;;;;6.23;4.03;;;18.90;1.00;;;;;;5031832;28;20429;-68
2023/10/05 13:27:24;;;;;;;10.40;4.40;;;18.90;1.00;;;;;;5032064;28;20237;-67
2023/10/05 13:29:49;;;;;;;5.67;4.43;;;18.80;1.00;;;;;;5031819;28;20913;-68